createdAt,value
2023-05-21T00:00:32.457Z,21.17
2023-05-21T00:03:00.418Z,21.45
2023-05-21T00:05:28.020Z,21.60
2023-05-21T00:07:55.513Z,21.35
2023-05-21T00:10:23.236Z,21.22
2023-05-21T00:12:50.834Z,21.36
2023-05-21T00:15:18.330Z,21.46
2023-05-21T00:17:46.232Z,21.38
2023-05-21T00:20:13.959Z,21.28
2023-05-21T00:22:42.525Z,21.24
2023-05-21T00:25:11.359Z,21.21
2023-05-21T00:27:38.856Z,21.09
2023-05-21T00:30:07.063Z,21.20
2023-05-21T00:32:35.293Z,21.12
2023-05-21T00:35:03.015Z,21.15
2023-05-21T00:37:34.448Z,21.17
2023-05-21T00:40:02.781Z,21.38
2023-05-21T00:42:30.797Z,21.55
2023-05-21T00:44:58.413Z,21.65
2023-05-21T00:47:29.761Z,21.58
2023-05-21T00:49:57.345Z,21.58
2023-05-21T00:52:27.051Z,21.68
2023-05-21T00:54:55.273Z,21.77
2023-05-21T00:57:27.203Z,22.02
2023-05-21T00:59:55.146Z,21.84
2023-05-21T01:02:24.419Z,21.81
2023-05-21T01:04:55.203Z,21.85
2023-05-21T01:07:23.416Z,21.85
2023-05-21T01:09:51.135Z,21.99
2023-05-21T01:12:18.953Z,21.93
2023-05-21T01:14:47.119Z,21.59
2023-05-21T01:17:15.716Z,21.41
2023-05-21T01:19:44.574Z,21.42
2023-05-21T01:22:14.290Z,21.72
2023-05-21T01:24:48.366Z,21.71
2023-05-21T01:27:16.445Z,21.96
2023-05-21T01:29:43.919Z,22.01
2023-05-21T01:32:35.621Z,21.89
2023-05-21T01:35:36.571Z,21.94
2023-05-21T01:38:04.420Z,21.93
2023-05-21T01:40:38.963Z,22.01
2023-05-21T01:43:07.571Z,22.05
2023-05-21T01:45:37.132Z,21.81
2023-05-21T01:48:06.251Z,21.73
2023-05-21T01:50:34.531Z,21.54
2023-05-21T01:53:03.919Z,21.57
2023-05-21T01:55:32.208Z,21.39
2023-05-21T01:58:02.052Z,21.35
2023-05-21T02:00:32.397Z,21.26
2023-05-21T02:03:00.605Z,21.00
2023-05-21T02:05:28.209Z,20.62
2023-05-21T02:07:57.076Z,20.63
2023-05-21T02:10:24.943Z,20.30
2023-05-21T02:12:52.689Z,20.84
2023-05-21T02:15:20.400Z,20.58
2023-05-21T02:17:51.408Z,20.54
2023-05-21T02:20:19.827Z,20.62
2023-05-21T02:22:48.727Z,20.30
2023-05-21T02:25:18.366Z,20.41
2023-05-21T02:27:47.077Z,19.90
2023-05-21T02:30:16.085Z,20.08
2023-05-21T02:32:43.729Z,20.48
2023-05-21T02:35:12.772Z,20.69
2023-05-21T02:37:40.722Z,20.94
2023-05-21T02:40:10.184Z,20.97
2023-05-21T02:42:40.265Z,21.05
2023-05-21T02:45:09.702Z,21.28
2023-05-21T02:47:38.468Z,21.17
2023-05-21T02:50:09.087Z,21.23
2023-05-21T02:52:37.272Z,21.36
2023-05-21T02:55:05.240Z,21.36
2023-05-21T02:57:32.977Z,21.35
2023-05-21T03:00:00.509Z,21.24
2023-05-21T03:02:28.125Z,21.27
2023-05-21T03:04:56.020Z,21.31
2023-05-21T03:07:24.380Z,21.38
2023-05-21T03:09:51.925Z,21.39
2023-05-21T03:12:19.699Z,21.15
2023-05-21T03:14:51.431Z,21.26
2023-05-21T03:17:20.760Z,21.14
2023-05-21T03:19:49.264Z,21.09
2023-05-21T03:22:16.847Z,20.97
2023-05-21T03:24:45.355Z,20.93
2023-05-21T03:27:13.584Z,21.01
2023-05-21T03:29:41.081Z,21.06
2023-05-21T03:32:08.967Z,21.16
2023-05-21T03:34:37.433Z,21.13
2023-05-21T03:37:05.093Z,21.29
2023-05-21T03:39:32.667Z,21.28
2023-05-21T03:42:00.525Z,21.18
2023-05-21T03:44:29.636Z,21.15
2023-05-21T03:46:57.496Z,21.24
2023-05-21T03:49:26.805Z,20.79
2023-05-21T03:51:54.474Z,20.91
2023-05-21T03:54:22.154Z,20.96
2023-05-21T03:56:50.460Z,21.03
2023-05-21T03:59:18.525Z,21.14
2023-05-21T04:01:46.219Z,21.15
2023-05-21T04:04:15.401Z,20.92
2023-05-21T04:06:43.032Z,20.64
2023-05-21T04:09:10.652Z,20.60
2023-05-21T04:11:38.356Z,20.78
2023-05-21T04:14:06.359Z,20.38
2023-05-21T04:16:35.517Z,20.11
2023-05-21T04:19:05.095Z,19.49
2023-05-21T04:21:32.584Z,19.85
2023-05-21T04:24:00.980Z,19.77
2023-05-21T04:26:29.579Z,19.51
2023-05-21T04:28:59.469Z,19.48
2023-05-21T04:31:27.089Z,19.56
2023-05-21T04:33:54.855Z,19.78
2023-05-21T04:36:22.343Z,19.82
2023-05-21T04:38:49.917Z,20.54
2023-05-21T04:41:19.142Z,20.56
2023-05-21T04:43:47.064Z,20.38
2023-05-21T04:46:14.929Z,20.88
2023-05-21T04:48:42.914Z,20.66
2023-05-21T04:51:11.070Z,20.46
2023-05-21T04:53:38.908Z,20.66
2023-05-21T04:56:07.313Z,20.79
2023-05-21T04:58:34.805Z,20.49
2023-05-21T05:01:04.191Z,20.41
2023-05-21T05:03:32.061Z,20.41
2023-05-21T05:06:00.356Z,20.37
2023-05-21T05:08:27.828Z,20.72
2023-05-21T05:10:55.909Z,20.79
2023-05-21T05:13:23.388Z,21.39
2023-05-21T05:15:54.436Z,21.41
2023-05-21T05:18:22.610Z,21.27
2023-05-21T05:20:50.062Z,21.25
2023-05-21T05:23:17.708Z,21.06
2023-05-21T05:25:45.620Z,21.30
2023-05-21T05:28:13.122Z,21.12
2023-05-21T05:30:40.797Z,21.23
2023-05-21T05:33:09.331Z,21.15
2023-05-21T05:35:37.016Z,21.45
2023-05-21T05:38:05.324Z,21.59
2023-05-21T05:40:33.347Z,21.25
2023-05-21T05:43:00.906Z,21.63
2023-05-21T05:45:28.436Z,21.58
2023-05-21T05:47:56.852Z,21.74
2023-05-21T05:50:24.487Z,21.81
2023-05-21T05:52:52.665Z,21.97
2023-05-21T05:55:22.063Z,21.91
2023-05-21T05:57:49.645Z,21.84
2023-05-21T06:00:17.735Z,21.96
2023-05-21T06:02:46.001Z,22.28
2023-05-21T06:05:13.549Z,22.31
2023-05-21T06:07:41.344Z,22.17
2023-05-21T06:10:09.542Z,22.19
2023-05-21T06:12:37.095Z,22.06
2023-05-21T06:15:06.174Z,22.05
2023-05-21T06:17:34.747Z,22.17
2023-05-21T06:20:02.737Z,22.21
2023-05-21T06:22:31.416Z,22.51
2023-05-21T06:24:59.148Z,22.32
2023-05-21T06:27:26.837Z,22.00
2023-05-21T06:29:54.367Z,22.37
2023-05-21T06:32:23.098Z,22.42
2023-05-21T06:34:51.025Z,22.49
2023-05-21T06:37:21.084Z,22.38
2023-05-21T06:39:49.079Z,23.00
2023-05-21T06:42:17.077Z,23.24
2023-05-21T06:44:44.824Z,23.55
2023-05-21T06:47:13.140Z,23.49
2023-05-21T06:49:40.674Z,23.45
2023-05-21T06:52:08.618Z,23.14
2023-05-21T06:54:36.412Z,22.79
2023-05-21T06:57:03.927Z,23.32
2023-05-21T06:59:31.802Z,23.01
2023-05-21T07:01:59.973Z,23.35
2023-05-21T07:04:28.176Z,22.81
2023-05-21T07:06:55.625Z,23.34
2023-05-21T07:09:24.171Z,23.41
2023-05-21T07:11:53.296Z,23.27
2023-05-21T07:14:21.966Z,23.31
2023-05-21T07:16:51.278Z,22.90
2023-05-21T07:19:18.814Z,22.42
2023-05-21T07:21:46.485Z,23.19
2023-05-21T07:24:14.240Z,23.12
2023-05-21T07:26:42.576Z,23.12
2023-05-21T07:29:11.332Z,23.86
2023-05-21T07:31:39.196Z,23.75
2023-05-21T07:34:06.956Z,23.45
2023-05-21T07:36:34.526Z,23.87
2023-05-21T07:39:02.561Z,23.92
2023-05-21T07:41:30.340Z,23.68
2023-05-21T07:43:58.538Z,23.83
2023-05-21T07:46:26.318Z,24.01
2023-05-21T07:48:54.314Z,24.27
2023-05-21T07:51:22.015Z,24.19
2023-05-21T07:53:50.511Z,24.28
2023-05-21T07:56:18.442Z,23.71
2023-05-21T07:58:46.075Z,24.06
2023-05-21T08:01:14.892Z,23.85
2023-05-21T08:03:43.142Z,24.23
2023-05-21T08:06:10.858Z,24.54
2023-05-21T08:08:38.429Z,24.57
2023-05-21T08:11:06.507Z,24.74
2023-05-21T08:13:34.433Z,24.51
2023-05-21T08:16:02.074Z,23.70
2023-05-21T08:18:29.984Z,24.54
2023-05-21T08:20:57.600Z,24.84
2023-05-21T08:23:27.161Z,24.81
2023-05-21T08:25:55.020Z,24.91
2023-05-21T08:28:23.396Z,24.29
2023-05-21T08:30:52.038Z,24.75
2023-05-21T08:33:22.343Z,24.83
2023-05-21T08:35:49.856Z,24.85
2023-05-21T08:38:17.872Z,24.87
2023-05-21T08:40:51.537Z,24.90
2023-05-21T08:43:19.192Z,24.78
2023-05-21T08:45:54.976Z,24.70
2023-05-21T08:48:24.049Z,24.81
2023-05-21T08:50:53.001Z,25.02
2023-05-21T08:53:28.201Z,25.10
2023-05-21T08:55:57.484Z,24.79
2023-05-21T08:58:25.967Z,24.91
2023-05-21T09:00:55.245Z,24.92
2023-05-21T09:03:24.894Z,24.91
2023-05-21T09:05:53.225Z,24.63
2023-05-21T09:08:32.052Z,24.92
2023-05-21T09:11:02.528Z,24.98
2023-05-21T09:13:36.865Z,24.94
2023-05-21T09:16:07.211Z,24.95
2023-05-21T09:18:34.723Z,25.10
2023-05-21T09:21:24.756Z,25.49
2023-05-21T09:23:57.346Z,25.59
2023-05-21T09:26:25.901Z,25.87
2023-05-21T09:28:58.327Z,25.83
2023-05-21T09:31:27.172Z,26.21
2023-05-21T09:33:58.628Z,26.18
2023-05-21T09:36:27.132Z,26.20
2023-05-21T09:38:55.011Z,26.13
2023-05-21T09:41:32.134Z,26.41
2023-05-21T09:44:01.684Z,26.01
2023-05-21T09:46:41.174Z,26.31
2023-05-21T09:49:36.901Z,26.05
2023-05-21T09:52:05.556Z,25.74
2023-05-21T09:54:34.600Z,26.29
2023-05-21T09:57:05.145Z,26.33
2023-05-21T09:59:39.523Z,26.29
2023-05-21T10:02:23.422Z,26.63
2023-05-21T10:04:52.948Z,26.93
2023-05-21T10:07:28.392Z,26.99
2023-05-21T10:09:57.525Z,27.13
2023-05-21T10:12:25.786Z,27.06
2023-05-21T10:15:15.334Z,26.68
2023-05-21T10:17:44.603Z,26.92
2023-05-21T10:20:12.990Z,27.05
2023-05-21T10:22:41.058Z,27.01
2023-05-21T10:25:09.021Z,27.43
2023-05-21T10:27:37.335Z,27.10
2023-05-21T10:30:08.662Z,27.47
2023-05-21T10:32:36.681Z,27.54
2023-05-21T10:35:04.694Z,27.02
2023-05-21T10:37:32.170Z,27.43
2023-05-21T10:40:00.116Z,27.91
2023-05-21T10:42:30.588Z,27.82
2023-05-21T10:45:04.088Z,27.41
2023-05-21T10:47:44.148Z,27.98
2023-05-21T10:51:01.758Z,27.82
2023-05-21T10:53:37.849Z,28.38
2023-05-21T10:56:17.959Z,28.09
2023-05-21T10:58:59.176Z,27.75
2023-05-21T11:01:29.226Z,27.67
2023-05-21T11:03:57.916Z,28.18
2023-05-21T11:06:26.636Z,27.70
2023-05-21T11:08:55.592Z,28.26
2023-05-21T11:11:43.601Z,27.54
2023-05-21T11:14:35.589Z,27.80
2023-05-21T11:17:09.869Z,28.10
2023-05-21T11:19:39.206Z,27.93
2023-05-21T11:22:08.419Z,27.52
2023-05-21T11:24:40.418Z,27.84
2023-05-21T11:27:08.792Z,28.15
2023-05-21T11:29:41.147Z,27.60
2023-05-21T11:32:10.685Z,27.85
2023-05-21T11:34:46.167Z,27.84
2023-05-21T11:37:37.176Z,28.26
2023-05-21T11:40:18.463Z,28.36
2023-05-21T11:42:51.508Z,28.04
2023-05-21T11:45:20.131Z,28.16
2023-05-21T11:47:49.568Z,28.30
2023-05-21T11:50:17.607Z,28.43
2023-05-21T11:52:45.810Z,28.62
2023-05-21T11:55:15.553Z,28.85
2023-05-21T11:57:44.813Z,28.97
2023-05-21T12:00:15.463Z,28.81
2023-05-21T12:02:50.343Z,28.76
2023-05-21T12:05:18.130Z,28.64
2023-05-21T12:07:52.028Z,28.82
2023-05-21T12:10:23.958Z,28.98
2023-05-21T12:12:55.580Z,28.76
2023-05-21T12:15:25.966Z,28.77
2023-05-21T12:17:54.911Z,28.47
2023-05-21T12:20:23.288Z,27.90
2023-05-21T12:22:50.864Z,28.31
2023-05-21T12:25:22.797Z,28.69
2023-05-21T12:27:57.917Z,28.61
2023-05-21T12:30:26.390Z,27.99
2023-05-21T12:32:54.159Z,28.37
2023-05-21T12:35:23.628Z,28.62
2023-05-21T12:37:52.433Z,28.44
2023-05-21T12:40:20.269Z,28.33
2023-05-21T12:42:47.913Z,28.13
2023-05-21T12:45:18.753Z,28.10
2023-05-21T12:47:50.311Z,28.19
2023-05-21T12:50:20.746Z,28.26
2023-05-21T12:52:48.214Z,28.45
2023-05-21T12:55:15.900Z,28.25
2023-05-21T12:57:44.034Z,28.30
2023-05-21T13:00:12.129Z,28.38
2023-05-21T13:02:44.440Z,28.38
2023-05-21T13:05:18.766Z,28.55
2023-05-21T13:07:47.424Z,28.42
2023-05-21T13:10:16.856Z,28.04
2023-05-21T13:12:45.139Z,28.01
2023-05-21T13:15:12.783Z,28.38
2023-05-21T13:17:40.653Z,28.64
2023-05-21T13:20:09.912Z,28.48
2023-05-21T13:22:46.957Z,28.53
2023-05-21T13:25:18.304Z,28.77
2023-05-21T13:27:46.496Z,28.53
2023-05-21T13:30:14.033Z,28.76
2023-05-21T13:32:42.422Z,28.53
2023-05-21T13:35:11.275Z,28.47
2023-05-21T13:37:40.039Z,28.39
2023-05-21T13:40:11.280Z,28.45
2023-05-21T13:42:38.952Z,28.16
2023-05-21T13:45:11.578Z,28.41
2023-05-21T13:47:40.462Z,28.55
2023-05-21T13:50:09.120Z,28.31
2023-05-21T13:52:37.417Z,28.69
2023-05-21T13:55:05.969Z,29.06
2023-05-21T13:57:33.744Z,28.79
2023-05-21T14:00:01.516Z,28.82
2023-05-21T14:02:32.721Z,28.67
2023-05-21T14:05:00.904Z,28.49
2023-05-21T14:07:28.463Z,28.83
2023-05-21T14:09:56.813Z,28.52
2023-05-21T14:12:24.595Z,29.08
2023-05-21T14:14:52.119Z,29.22
2023-05-21T14:17:19.718Z,29.37
2023-05-21T14:19:48.153Z,29.04
2023-05-21T14:22:15.761Z,29.38
2023-05-21T14:24:43.229Z,29.59
2023-05-21T14:27:12.589Z,29.00
2023-05-21T14:29:41.388Z,28.89
2023-05-21T14:32:08.941Z,28.84
2023-05-21T14:34:38.563Z,29.23
2023-05-21T14:37:06.219Z,29.21
2023-05-21T14:39:33.693Z,29.06
2023-05-21T14:42:04.699Z,29.05
2023-05-21T14:44:32.623Z,29.16
2023-05-21T14:47:00.332Z,28.84
2023-05-21T14:49:28.175Z,28.97
2023-05-21T14:51:55.884Z,28.92
2023-05-21T14:54:23.317Z,29.36
2023-05-21T14:56:51.096Z,29.31
2023-05-21T14:59:18.690Z,28.66
2023-05-21T15:01:46.296Z,28.72
2023-05-21T15:04:14.232Z,28.71
2023-05-21T15:06:42.156Z,28.98
2023-05-21T15:09:09.644Z,29.04
2023-05-21T15:11:38.957Z,28.34
2023-05-21T15:14:06.418Z,28.80
2023-05-21T15:16:33.966Z,29.00
2023-05-21T15:19:01.811Z,28.66
2023-05-21T15:21:29.371Z,28.98
2023-05-21T15:23:56.925Z,29.10
2023-05-21T15:26:26.959Z,29.15
2023-05-21T15:28:54.536Z,29.15
2023-05-21T15:31:22.081Z,28.89
2023-05-21T15:33:49.919Z,28.96
2023-05-21T15:36:17.692Z,28.70
2023-05-21T15:38:45.126Z,28.34
2023-05-21T15:41:12.846Z,28.03
2023-05-21T15:43:42.179Z,28.37
2023-05-21T15:46:11.228Z,27.66
2023-05-21T15:48:39.161Z,28.22
2023-05-21T15:51:06.695Z,28.49
2023-05-21T15:53:34.244Z,28.64
2023-05-21T15:56:03.337Z,28.51
2023-05-21T15:58:31.304Z,28.53
2023-05-21T16:00:59.069Z,28.15
2023-05-21T16:03:26.985Z,28.54
2023-05-21T16:05:54.539Z,28.61
2023-05-21T16:08:22.078Z,28.82
2023-05-21T16:10:49.868Z,28.43
2023-05-21T16:13:17.334Z,28.29
2023-05-21T16:15:44.813Z,28.65
2023-05-21T16:18:12.632Z,28.46
2023-05-21T16:20:40.216Z,27.74
2023-05-21T16:23:07.693Z,28.03
2023-05-21T16:25:36.584Z,28.41
2023-05-21T16:28:04.543Z,28.17
2023-05-21T16:30:32.061Z,27.81
2023-05-21T16:32:59.823Z,27.84
2023-05-21T16:35:27.436Z,27.66
2023-05-21T16:37:54.955Z,27.87
2023-05-21T16:40:22.745Z,27.10
2023-05-21T16:42:50.223Z,27.45
2023-05-21T16:45:20.758Z,27.69
2023-05-21T16:47:49.648Z,27.59
2023-05-21T16:50:18.970Z,28.03
2023-05-21T16:52:46.496Z,27.94
2023-05-21T16:55:14.221Z,27.89
2023-05-21T16:57:41.723Z,26.88
2023-05-21T17:00:09.536Z,27.29
2023-05-21T17:02:37.354Z,27.08
2023-05-21T17:05:05.140Z,27.74
2023-05-21T17:07:32.753Z,27.38
2023-05-21T17:10:00.505Z,27.58
2023-05-21T17:12:28.002Z,27.61
2023-05-21T17:14:55.542Z,27.57
2023-05-21T17:17:23.322Z,27.55
2023-05-21T17:19:50.778Z,27.53
2023-05-21T17:22:18.600Z,27.32
2023-05-21T17:24:46.353Z,27.62
2023-05-21T17:27:13.940Z,27.51
2023-05-21T17:29:42.412Z,27.34
2023-05-21T17:32:10.399Z,27.54
2023-05-21T17:34:38.431Z,27.49
2023-05-21T17:37:06.234Z,27.68
2023-05-21T17:39:34.469Z,27.76
2023-05-21T17:42:02.131Z,27.93
2023-05-21T17:44:29.575Z,28.09
2023-05-21T17:46:57.613Z,28.05
2023-05-21T17:49:25.288Z,28.02
2023-05-21T17:51:53.473Z,28.05
2023-05-21T17:54:21.549Z,28.03
2023-05-21T17:56:49.032Z,28.12
2023-05-21T17:59:16.851Z,28.08
2023-05-21T18:01:44.651Z,28.12
2023-05-21T18:04:13.389Z,28.02
2023-05-21T18:06:41.052Z,27.98
2023-05-21T18:09:10.537Z,27.93
2023-05-21T18:11:39.087Z,27.86
2023-05-21T18:14:06.617Z,27.80
2023-05-21T18:16:34.186Z,27.69
2023-05-21T18:19:05.731Z,27.64
2023-05-21T18:21:36.805Z,27.58
2023-05-21T18:24:06.200Z,27.46
2023-05-21T18:26:33.761Z,27.39
2023-05-21T18:29:01.478Z,27.28
2023-05-21T18:31:29.288Z,27.21
2023-05-21T18:33:56.808Z,27.09
2023-05-21T18:36:24.287Z,26.93
2023-05-21T18:38:52.343Z,26.83
2023-05-21T18:41:23.036Z,26.70
2023-05-21T18:43:51.068Z,26.55
2023-05-21T18:46:19.519Z,26.34
2023-05-21T18:48:48.643Z,26.25
2023-05-21T18:51:16.141Z,26.21
2023-05-21T18:53:44.412Z,26.10
2023-05-21T18:56:11.972Z,25.95
2023-05-21T18:58:39.830Z,25.83
2023-05-21T19:01:07.653Z,25.66
2023-05-21T19:03:35.125Z,25.55
2023-05-21T19:06:03.592Z,25.42
2023-05-21T19:08:31.386Z,25.33
2023-05-21T19:10:59.152Z,25.31
2023-05-21T19:13:26.671Z,25.22
2023-05-21T19:15:54.616Z,25.06
2023-05-21T19:18:22.440Z,24.84
2023-05-21T19:20:50.062Z,24.76
2023-05-21T19:23:18.134Z,24.68
2023-05-21T19:25:45.682Z,24.56
2023-05-21T19:28:13.409Z,24.52
2023-05-21T19:30:41.189Z,24.44
2023-05-21T19:33:08.727Z,24.34
2023-05-21T19:35:37.809Z,24.29
2023-05-21T19:38:05.722Z,24.15
2023-05-21T19:40:33.627Z,24.01
2023-05-21T19:43:01.350Z,23.98
2023-05-21T19:45:29.445Z,23.91
2023-05-21T19:47:57.159Z,23.80
2023-05-21T19:50:24.937Z,23.77
2023-05-21T19:52:53.685Z,23.69
2023-05-21T19:55:23.059Z,23.59
2023-05-21T19:57:50.878Z,23.56
2023-05-21T20:00:19.302Z,23.54
2023-05-21T20:02:47.158Z,23.50
2023-05-21T20:05:14.941Z,23.46
2023-05-21T20:07:42.632Z,23.39
2023-05-21T20:10:10.600Z,23.33
2023-05-21T20:12:38.411Z,23.43
2023-05-21T20:15:06.997Z,23.18
2023-05-21T20:17:36.018Z,23.23
2023-05-21T20:20:11.242Z,23.27
2023-05-21T20:22:39.072Z,23.26
2023-05-21T20:25:08.481Z,23.21
2023-05-21T20:27:38.612Z,23.11
2023-05-21T20:30:07.598Z,23.02
2023-05-21T20:32:35.369Z,22.93
2023-05-21T20:35:04.007Z,22.55
2023-05-21T20:37:34.851Z,22.82
2023-05-21T20:40:02.336Z,22.72
2023-05-21T20:42:34.372Z,22.66
2023-05-21T20:45:03.103Z,22.71
2023-05-21T20:47:32.051Z,22.70
2023-05-21T20:50:00.106Z,22.72
2023-05-21T20:52:27.974Z,22.61
2023-05-21T20:54:55.527Z,22.65
2023-05-21T20:57:24.044Z,22.72
2023-05-21T20:59:53.063Z,22.71
2023-05-21T21:02:21.301Z,22.64
2023-05-21T21:04:49.887Z,22.51
2023-05-21T21:07:18.357Z,22.61
2023-05-21T21:09:49.253Z,22.49
2023-05-21T21:14:47.576Z,22.48
2023-05-21T21:17:15.094Z,22.30
2023-05-21T21:19:42.604Z,22.29
2023-05-21T21:22:10.380Z,22.25
2023-05-21T21:24:37.916Z,22.19
2023-05-21T21:27:06.116Z,22.25
2023-05-21T21:29:33.860Z,22.34
2023-05-21T21:32:01.512Z,22.31
2023-05-21T21:34:29.086Z,22.31
2023-05-21T21:36:56.795Z,22.33
2023-05-21T21:39:26.174Z,22.24
2023-05-21T21:41:53.764Z,22.13
2023-05-21T21:44:21.555Z,22.14
2023-05-21T21:46:49.078Z,22.20
2023-05-21T21:49:19.467Z,22.14
2023-05-21T21:51:48.695Z,22.09
2023-05-21T21:54:16.498Z,22.09
2023-05-21T21:56:44.034Z,22.02
2023-05-21T21:59:11.838Z,21.97
2023-05-21T22:01:39.517Z,21.87
2023-05-21T22:04:07.467Z,21.80
2023-05-21T22:06:35.038Z,22.00
2023-05-21T22:09:02.570Z,21.83
2023-05-21T22:11:30.482Z,21.93
2023-05-21T22:14:00.342Z,22.09
2023-05-21T22:16:28.383Z,22.19
2023-05-21T22:18:58.103Z,22.22
2023-05-21T22:21:32.803Z,22.11
2023-05-21T22:24:00.682Z,22.24
2023-05-21T22:26:28.285Z,22.18
2023-05-21T22:28:55.861Z,22.17
2023-05-21T22:31:23.687Z,22.18
2023-05-21T22:33:51.273Z,22.22
2023-05-21T22:36:18.827Z,22.18
2023-05-21T22:38:46.556Z,22.18
2023-05-21T22:41:14.057Z,22.26
2023-05-21T22:43:41.542Z,22.28
2023-05-21T22:46:09.363Z,22.25
2023-05-21T22:48:37.324Z,22.26
2023-05-21T22:51:05.523Z,22.01
2023-05-21T22:53:33.487Z,22.17
2023-05-21T22:56:01.142Z,22.43
2023-05-21T22:58:28.901Z,22.40
2023-05-21T23:00:56.698Z,22.58
2023-05-21T23:03:24.276Z,22.62
2023-05-21T23:05:51.786Z,22.76
2023-05-21T23:08:19.851Z,22.80
2023-05-21T23:10:47.365Z,22.68
2023-05-21T23:13:14.925Z,22.60
2023-05-21T23:15:44.014Z,22.66
2023-05-21T23:18:11.802Z,22.46
2023-05-21T23:20:41.254Z,22.40
2023-05-21T23:23:10.142Z,22.36
2023-05-21T23:25:37.599Z,22.37
2023-05-21T23:28:05.189Z,22.14
2023-05-21T23:30:32.928Z,22.40
2023-05-21T23:33:00.663Z,22.35
2023-05-21T23:35:28.229Z,22.51
2023-05-21T23:37:56.208Z,22.50
2023-05-21T23:40:23.695Z,22.56
2023-05-21T23:42:51.334Z,22.52
2023-05-21T23:45:19.090Z,22.55
2023-05-21T23:47:46.833Z,22.71
2023-05-21T23:50:14.572Z,22.74
2023-05-21T23:52:42.478Z,22.76
2023-05-21T23:55:12.658Z,22.93
2023-05-21T23:57:41.066Z,23.01
